sensor_id;sensor_type;location;lat;lon;timestamp;pressure;altitude;pressure_sealevel;temperature;humidity
5126;BME280;63008;53.112;8.896;2023-06-22T00:01:23;101901.47;;;17.46;96.04
5126;BME280;63008;53.112;8.896;2023-06-22T00:03:25;101898.94;;;17.53;96.20
5126;BME280;63008;53.112;8.896;2023-06-22T00:05:26;101909.91;;;17.49;96.23
5126;BME280;63008;53.112;8.896;2023-06-22T00:07:28;101911.88;;;17.49;95.96
5126;BME280;63008;53.112;8.896;2023-06-22T00:09:29;101916.19;;;17.46;96.07
5126;BME280;63008;53.112;8.896;2023-06-22T00:11:30;101913.28;;;17.43;96.15
5126;BME280;63008;53.112;8.896;2023-06-22T00:13:34;101914.06;;;17.55;95.94
5126;BME280;63008;53.112;8.896;2023-06-22T00:15:36;101916.38;;;17.53;95.76
5126;BME280;63008;53.112;8.896;2023-06-22T00:17:37;101905.97;;;17.50;96.41
5126;BME280;63008;53.112;8.896;2023-06-22T00:19:41;101915.94;;;17.39;97.61
5126;BME280;63008;53.112;8.896;2023-06-22T00:21:41;101917.22;;;17.30;98.56
5126;BME280;63008;53.112;8.896;2023-06-22T00:23:43;101911.66;;;17.30;99.04
5126;BME280;63008;53.112;8.896;2023-06-22T00:25:44;101909.94;;;17.25;98.88
5126;BME280;63008;53.112;8.896;2023-06-22T00:27:45;101915.47;;;17.25;98.82
5126;BME280;63008;53.112;8.896;2023-06-22T00:29:46;101909.25;;;17.28;98.58
5126;BME280;63008;53.112;8.896;2023-06-22T00:31:47;101910.28;;;17.24;98.97
5126;BME280;63008;53.112;8.896;2023-06-22T00:33:48;101908.31;;;17.24;99.01
5126;BME280;63008;53.112;8.896;2023-06-22T00:35:51;101907.84;;;17.22;98.79
5126;BME280;63008;53.112;8.896;2023-06-22T00:37:53;101910.19;;;17.20;98.92
5126;BME280;63008;53.112;8.896;2023-06-22T00:40:01;101911.78;;;17.21;98.87
5126;BME280;63008;53.112;8.896;2023-06-22T00:42:02;101913.41;;;17.22;98.87
5126;BME280;63008;53.112;8.896;2023-06-22T00:44:03;101911.72;;;17.18;98.77
5126;BME280;63008;53.112;8.896;2023-06-22T00:46:04;101906.63;;;17.08;99.30
5126;BME280;63008;53.112;8.896;2023-06-22T00:48:06;101914.72;;;17.01;100.00
5126;BME280;63008;53.112;8.896;2023-06-22T00:50:08;101906.28;;;16.97;100.00
5126;BME280;63008;53.112;8.896;2023-06-22T00:52:10;101902.34;;;16.98;100.00
5126;BME280;63008;53.112;8.896;2023-06-22T00:54:14;101913.25;;;16.91;100.00
5126;BME280;63008;53.112;8.896;2023-06-22T00:56:15;101909.78;;;16.94;100.00
5126;BME280;63008;53.112;8.896;2023-06-22T00:58:21;101909.06;;;16.97;100.00
5126;BME280;63008;53.112;8.896;2023-06-22T01:00:24;101904.31;;;16.98;100.00
5126;BME280;63008;53.112;8.896;2023-06-22T01:02:25;101903.53;;;16.97;100.00
5126;BME280;63008;53.112;8.896;2023-06-22T01:04:34;101906.03;;;17.02;100.00
5126;BME280;63008;53.112;8.896;2023-06-22T01:06:41;101908.81;;;17.02;100.00
5126;BME280;63008;53.112;8.896;2023-06-22T01:15:24;101911.38;;;16.95;100.00
5126;BME280;63008;53.112;8.896;2023-06-22T01:17:26;101895.31;;;16.89;100.00
5126;BME280;63008;53.112;8.896;2023-06-22T01:19:49;101903.88;;;16.84;100.00
5126;BME280;63008;53.112;8.896;2023-06-22T01:21:56;101898.66;;;16.82;100.00
5126;BME280;63008;53.112;8.896;2023-06-22T01:24:08;101901.19;;;16.87;100.00
5126;BME280;63008;53.112;8.896;2023-06-22T01:26:28;101896.22;;;16.93;100.00
5126;BME280;63008;53.112;8.896;2023-06-22T01:30:45;101894.97;;;16.90;100.00
5126;BME280;63008;53.112;8.896;2023-06-22T01:32:47;101894.28;;;16.81;100.00
5126;BME280;63008;53.112;8.896;2023-06-22T01:34:49;101877.44;;;16.74;100.00
5126;BME280;63008;53.112;8.896;2023-06-22T01:36:51;101893.34;;;16.89;100.00
5126;BME280;63008;53.112;8.896;2023-06-22T01:38:53;101890.69;;;16.81;100.00
5126;BME280;63008;53.112;8.896;2023-06-22T01:40:55;101894.06;;;16.74;100.00
5126;BME280;63008;53.112;8.896;2023-06-22T01:42:57;101894.06;;;16.62;100.00
5126;BME280;63008;53.112;8.896;2023-06-22T01:44:59;101880.91;;;16.59;100.00
5126;BME280;63008;53.112;8.896;2023-06-22T01:47:01;101883.88;;;16.66;100.00
5126;BME280;63008;53.112;8.896;2023-06-22T01:49:04;101887.13;;;16.68;100.00
5126;BME280;63008;53.112;8.896;2023-06-22T01:51:05;101881.00;;;16.63;100.00
5126;BME280;63008;53.112;8.896;2023-06-22T01:53:06;101870.47;;;16.68;100.00
5126;BME280;63008;53.112;8.896;2023-06-22T01:55:08;101863.56;;;16.62;100.00
5126;BME280;63008;53.112;8.896;2023-06-22T01:57:09;101865.06;;;16.48;100.00
5126;BME280;63008;53.112;8.896;2023-06-22T01:59:32;101863.91;;;16.49;100.00
5126;BME280;63008;53.112;8.896;2023-06-22T02:01:42;101871.06;;;16.50;100.00
5126;BME280;63008;53.112;8.896;2023-06-22T02:04:03;101870.50;;;16.57;100.00
5126;BME280;63008;53.112;8.896;2023-06-22T02:06:08;101872.31;;;16.52;100.00
5126;BME280;63008;53.112;8.896;2023-06-22T02:08:19;101883.09;;;16.54;100.00
5126;BME280;63008;53.112;8.896;2023-06-22T02:10:22;101878.56;;;16.50;100.00
5126;BME280;63008;53.112;8.896;2023-06-22T02:12:25;101879.97;;;16.44;100.00
5126;BME280;63008;53.112;8.896;2023-06-22T02:14:28;101878.81;;;16.45;100.00
5126;BME280;63008;53.112;8.896;2023-06-22T02:16:31;101878.09;;;16.48;100.00
5126;BME280;63008;53.112;8.896;2023-06-22T02:18:32;101876.59;;;16.38;100.00
5126;BME280;63008;53.112;8.896;2023-06-22T02:20:37;101881.97;;;16.23;100.00
5126;BME280;63008;53.112;8.896;2023-06-22T02:22:38;101881.53;;;16.21;100.00
5126;BME280;63008;53.112;8.896;2023-06-22T02:24:39;101875.72;;;16.14;100.00
5126;BME280;63008;53.112;8.896;2023-06-22T02:26:40;101877.00;;;16.16;100.00
5126;BME280;63008;53.112;8.896;2023-06-22T02:28:43;101870.06;;;16.22;100.00
5126;BME280;63008;53.112;8.896;2023-06-22T02:30:44;101879.41;;;16.18;100.00
5126;BME280;63008;53.112;8.896;2023-06-22T02:32:45;101882.53;;;16.28;100.00
5126;BME280;63008;53.112;8.896;2023-06-22T02:34:46;101882.69;;;16.32;100.00
5126;BME280;63008;53.112;8.896;2023-06-22T02:36:48;101886.69;;;16.22;100.00
5126;BME280;63008;53.112;8.896;2023-06-22T02:38:53;101882.66;;;16.20;100.00
5126;BME280;63008;53.112;8.896;2023-06-22T02:40:54;101881.97;;;16.23;100.00
5126;BME280;63008;53.112;8.896;2023-06-22T02:42:56;101881.97;;;16.23;100.00
5126;BME280;63008;53.112;8.896;2023-06-22T02:44:58;101882.09;;;16.14;100.00
5126;BME280;63008;53.112;8.896;2023-06-22T02:46:59;101876.09;;;16.12;100.00
5126;BME280;63008;53.112;8.896;2023-06-22T02:49:00;101880.47;;;16.13;100.00
5126;BME280;63008;53.112;8.896;2023-06-22T02:51:01;101880.09;;;16.15;100.00
5126;BME280;63008;53.112;8.896;2023-06-22T02:53:02;101883.91;;;16.10;100.00
5126;BME280;63008;53.112;8.896;2023-06-22T02:55:04;101880.34;;;16.10;100.00
5126;BME280;63008;53.112;8.896;2023-06-22T02:57:05;101878.00;;;16.00;100.00
5126;BME280;63008;53.112;8.896;2023-06-22T02:59:06;101875.13;;;15.96;100.00
5126;BME280;63008;53.112;8.896;2023-06-22T03:01:07;101874.28;;;15.96;100.00
5126;BME280;63008;53.112;8.896;2023-06-22T03:03:08;101880.19;;;15.94;100.00
5126;BME280;63008;53.112;8.896;2023-06-22T03:05:09;101883.16;;;15.89;100.00
5126;BME280;63008;53.112;8.896;2023-06-22T03:07:14;101885.72;;;15.94;100.00
5126;BME280;63008;53.112;8.896;2023-06-22T03:09:15;101876.38;;;15.99;100.00
5126;BME280;63008;53.112;8.896;2023-06-22T03:11:16;101889.97;;;15.92;100.00
5126;BME280;63008;53.112;8.896;2023-06-22T03:13:17;101891.81;;;15.88;100.00
5126;BME280;63008;53.112;8.896;2023-06-22T03:15:18;101893.44;;;15.89;100.00
5126;BME280;63008;53.112;8.896;2023-06-22T03:17:18;101892.97;;;15.87;100.00
5126;BME280;63008;53.112;8.896;2023-06-22T03:19:20;101886.38;;;15.91;100.00
5126;BME280;63008;53.112;8.896;2023-06-22T03:21:22;101888.91;;;15.84;100.00
5126;BME280;63008;53.112;8.896;2023-06-22T03:23:23;101890.06;;;15.83;100.00
5126;BME280;63008;53.112;8.896;2023-06-22T03:25:24;101887.28;;;15.83;100.00
5126;BME280;63008;53.112;8.896;2023-06-22T03:27:28;101896.41;;;15.84;100.00
5126;BME280;63008;53.112;8.896;2023-06-22T03:29:29;101892.63;;;15.88;100.00
5126;BME280;63008;53.112;8.896;2023-06-22T03:31:30;101896.22;;;15.89;100.00
5126;BME280;63008;53.112;8.896;2023-06-22T03:33:31;101895.28;;;15.85;100.00
5126;BME280;63008;53.112;8.896;2023-06-22T03:35:32;101900.13;;;15.88;100.00
5126;BME280;63008;53.112;8.896;2023-06-22T03:37:33;101905.66;;;15.88;100.00
5126;BME280;63008;53.112;8.896;2023-06-22T03:39:34;101912.69;;;15.85;100.00
5126;BME280;63008;53.112;8.896;2023-06-22T03:41:35;101903.91;;;15.83;100.00
5126;BME280;63008;53.112;8.896;2023-06-22T03:43:36;101911.19;;;15.88;100.00
5126;BME280;63008;53.112;8.896;2023-06-22T03:45:37;101911.50;;;16.07;100.00
5126;BME280;63008;53.112;8.896;2023-06-22T03:47:38;101907.94;;;16.18;100.00
5126;BME280;63008;53.112;8.896;2023-06-22T03:49:39;101908.72;;;16.07;100.00
5126;BME280;63008;53.112;8.896;2023-06-22T03:51:40;101922.44;;;16.03;100.00
5126;BME280;63008;53.112;8.896;2023-06-22T03:53:41;101918.19;;;16.06;100.00
5126;BME280;63008;53.112;8.896;2023-06-22T03:55:49;101918.50;;;16.04;100.00
5126;BME280;63008;53.112;8.896;2023-06-22T03:57:51;101919.56;;;16.12;100.00
5126;BME280;63008;53.112;8.896;2023-06-22T03:59:56;101926.13;;;16.07;100.00
5126;BME280;63008;53.112;8.896;2023-06-22T04:01:57;101922.81;;;16.14;100.00
5126;BME280;63008;53.112;8.896;2023-06-22T04:03:58;101921.66;;;16.15;100.00
5126;BME280;63008;53.112;8.896;2023-06-22T04:05:59;101917.63;;;16.24;100.00
5126;BME280;63008;53.112;8.896;2023-06-22T04:08:00;101922.25;;;16.20;100.00
5126;BME280;63008;53.112;8.896;2023-06-22T04:10:01;101916.16;;;16.27;100.00
5126;BME280;63008;53.112;8.896;2023-06-22T04:12:03;101918.50;;;16.37;100.00
5126;BME280;63008;53.112;8.896;2023-06-22T04:14:04;101920.72;;;16.43;100.00
5126;BME280;63008;53.112;8.896;2023-06-22T04:16:05;101917.03;;;16.51;100.00
5126;BME280;63008;53.112;8.896;2023-06-22T04:18:08;101926.88;;;16.60;100.00
5126;BME280;63008;53.112;8.896;2023-06-22T04:20:10;101928.59;;;16.65;100.00
5126;BME280;63008;53.112;8.896;2023-06-22T04:22:11;101929.41;;;16.77;100.00
5126;BME280;63008;53.112;8.896;2023-06-22T04:24:12;101930.78;;;16.83;100.00
5126;BME280;63008;53.112;8.896;2023-06-22T04:26:13;101935.31;;;16.88;100.00
5126;BME280;63008;53.112;8.896;2023-06-22T04:28:14;101924.09;;;16.96;100.00
5126;BME280;63008;53.112;8.896;2023-06-22T04:30:15;101923.97;;;16.93;100.00
5126;BME280;63008;53.112;8.896;2023-06-22T04:32:17;101926.16;;;16.99;100.00
5126;BME280;63008;53.112;8.896;2023-06-22T04:34:18;101927.06;;;17.03;100.00
5126;BME280;63008;53.112;8.896;2023-06-22T04:36:19;101916.75;;;17.28;100.00
5126;BME280;63008;53.112;8.896;2023-06-22T04:38:21;101922.31;;;17.28;100.00
5126;BME280;63008;53.112;8.896;2023-06-22T04:40:23;101923.13;;;17.28;100.00
5126;BME280;63008;53.112;8.896;2023-06-22T04:42:26;101919.78;;;17.35;100.00
5126;BME280;63008;53.112;8.896;2023-06-22T04:44:27;101922.06;;;17.45;100.00
5126;BME280;63008;53.112;8.896;2023-06-22T04:46:28;101929.47;;;17.53;100.00
5126;BME280;63008;53.112;8.896;2023-06-22T04:48:30;101923.44;;;17.51;100.00
5126;BME280;63008;53.112;8.896;2023-06-22T04:50:33;101927.75;;;17.48;99.40
5126;BME280;63008;53.112;8.896;2023-06-22T04:52:34;101925.56;;;17.42;100.00
5126;BME280;63008;53.112;8.896;2023-06-22T04:54:37;101925.75;;;17.49;99.54
5126;BME280;63008;53.112;8.896;2023-06-22T04:56:38;101925.97;;;17.56;100.00
5126;BME280;63008;53.112;8.896;2023-06-22T04:58:41;101925.69;;;17.73;100.00
5126;BME280;63008;53.112;8.896;2023-06-22T05:00:42;101925.44;;;17.78;99.12
5126;BME280;63008;53.112;8.896;2023-06-22T05:02:46;101921.84;;;17.77;98.07
5126;BME280;63008;53.112;8.896;2023-06-22T05:04:47;101925.69;;;17.73;97.95
5126;BME280;63008;53.112;8.896;2023-06-22T05:06:52;101928.22;;;17.78;96.91
5126;BME280;63008;53.112;8.896;2023-06-22T05:08:54;101922.75;;;17.81;96.58
5126;BME280;63008;53.112;8.896;2023-06-22T05:11:01;101921.94;;;17.81;96.43
5126;BME280;63008;53.112;8.896;2023-06-22T05:13:01;101918.72;;;17.79;96.15
5126;BME280;63008;53.112;8.896;2023-06-22T05:15:03;101922.84;;;17.85;95.85
5126;BME280;63008;53.112;8.896;2023-06-22T05:17:04;101923.84;;;17.92;96.60
5126;BME280;63008;53.112;8.896;2023-06-22T05:19:05;101917.97;;;17.94;95.80
5126;BME280;63008;53.112;8.896;2023-06-22T05:21:06;101916.81;;;18.10;94.76
5126;BME280;63008;53.112;8.896;2023-06-22T05:23:07;101914.25;;;18.17;94.67
5126;BME280;63008;53.112;8.896;2023-06-22T05:25:09;101909.59;;;18.21;94.15
5126;BME280;63008;53.112;8.896;2023-06-22T05:27:14;101905.41;;;18.27;94.30
5126;BME280;63008;53.112;8.896;2023-06-22T05:29:15;101908.91;;;18.40;93.08
5126;BME280;63008;53.112;8.896;2023-06-22T05:31:16;101916.63;;;18.46;93.20
5126;BME280;63008;53.112;8.896;2023-06-22T05:33:17;101909.81;;;18.59;92.48
5126;BME280;63008;53.112;8.896;2023-06-22T05:35:18;101907.84;;;18.75;91.25
5126;BME280;63008;53.112;8.896;2023-06-22T05:37:19;101910.69;;;18.94;90.70
5126;BME280;63008;53.112;8.896;2023-06-22T05:39:20;101905.22;;;18.97;89.81
5126;BME280;63008;53.112;8.896;2023-06-22T05:41:21;101907.44;;;18.92;86.58
5126;BME280;63008;53.112;8.896;2023-06-22T05:43:22;101909.16;;;18.96;86.47
5126;BME280;63008;53.112;8.896;2023-06-22T05:45:23;101913.06;;;19.11;86.11
5126;BME280;63008;53.112;8.896;2023-06-22T05:47:24;101907.94;;;19.13;85.93
5126;BME280;63008;53.112;8.896;2023-06-22T05:49:25;101908.94;;;19.20;85.90
5126;BME280;63008;53.112;8.896;2023-06-22T05:51:30;101911.97;;;19.31;86.01
5126;BME280;63008;53.112;8.896;2023-06-22T05:53:31;101912.81;;;19.50;83.96
5126;BME280;63008;53.112;8.896;2023-06-22T05:55:32;101916.34;;;19.66;83.84
5126;BME280;63008;53.112;8.896;2023-06-22T05:57:33;101913.03;;;19.80;83.28
5126;BME280;63008;53.112;8.896;2023-06-22T05:59:34;101920.94;;;19.97;83.81
5126;BME280;63008;53.112;8.896;2023-06-22T06:01:35;101915.59;;;20.07;83.67
5126;BME280;63008;53.112;8.896;2023-06-22T06:03:36;101906.31;;;20.22;80.44
5126;BME280;63008;53.112;8.896;2023-06-22T06:05:42;101911.75;;;20.15;80.31
5126;BME280;63008;53.112;8.896;2023-06-22T06:07:45;101904.66;;;20.18;80.71
5126;BME280;63008;53.112;8.896;2023-06-22T06:09:46;101904.22;;;20.60;80.18
5126;BME280;63008;53.112;8.896;2023-06-22T06:11:47;101897.50;;;20.65;79.65
5126;BME280;63008;53.112;8.896;2023-06-22T06:13:48;101898.06;;;20.74;78.66
5126;BME280;63008;53.112;8.896;2023-06-22T06:15:49;101900.69;;;20.63;77.50
5126;BME280;63008;53.112;8.896;2023-06-22T06:17:52;101904.75;;;20.43;78.57
5126;BME280;63008;53.112;8.896;2023-06-22T06:19:53;101906.78;;;20.46;78.97
5126;BME280;63008;53.112;8.896;2023-06-22T06:21:54;101899.19;;;20.69;78.06
5126;BME280;63008;53.112;8.896;2023-06-22T06:23:55;101903.41;;;20.60;79.03
5126;BME280;63008;53.112;8.896;2023-06-22T06:25:56;101890.31;;;20.64;79.16
5126;BME280;63008;53.112;8.896;2023-06-22T06:27:58;101898.00;;;20.48;79.63
5126;BME280;63008;53.112;8.896;2023-06-22T06:29:59;101895.19;;;20.44;79.02
5126;BME280;63008;53.112;8.896;2023-06-22T06:32:00;101893.00;;;20.35;79.18
5126;BME280;63008;53.112;8.896;2023-06-22T06:34:02;101897.72;;;20.31;79.41
5126;BME280;63008;53.112;8.896;2023-06-22T06:36:03;101901.44;;;20.38;80.12
5126;BME280;63008;53.112;8.896;2023-06-22T06:38:04;101904.75;;;20.43;79.96
5126;BME280;63008;53.112;8.896;2023-06-22T06:40:06;101891.00;;;20.57;80.13
5126;BME280;63008;53.112;8.896;2023-06-22T06:42:11;101888.78;;;20.66;79.51
5126;BME280;63008;53.112;8.896;2023-06-22T06:44:12;101896.03;;;20.71;78.95
5126;BME280;63008;53.112;8.896;2023-06-22T06:46:13;101890.03;;;20.69;78.25
5126;BME280;63008;53.112;8.896;2023-06-22T06:48:14;101890.44;;;20.71;78.63
5126;BME280;63008;53.112;8.896;2023-06-22T06:50:16;101893.78;;;20.80;79.91
5126;BME280;63008;53.112;8.896;2023-06-22T06:52:17;101889.63;;;20.93;77.67
5126;BME280;63008;53.112;8.896;2023-06-22T06:54:18;101882.16;;;21.00;78.25
5126;BME280;63008;53.112;8.896;2023-06-22T06:56:21;101893.44;;;21.07;78.95
5126;BME280;63008;53.112;8.896;2023-06-22T06:58:25;101891.97;;;21.17;78.65
5126;BME280;63008;53.112;8.896;2023-06-22T07:00:26;101893.38;;;21.30;77.47
5126;BME280;63008;53.112;8.896;2023-06-22T07:02:27;101898.25;;;21.36;77.30
5126;BME280;63008;53.112;8.896;2023-06-22T07:04:31;101891.41;;;21.34;76.99
5126;BME280;63008;53.112;8.896;2023-06-22T07:06:32;101893.84;;;21.35;76.41
5126;BME280;63008;53.112;8.896;2023-06-22T07:08:34;101899.19;;;21.47;75.60
5126;BME280;63008;53.112;8.896;2023-06-22T07:10:37;101899.63;;;21.49;75.83
5126;BME280;63008;53.112;8.896;2023-06-22T07:12:38;101900.13;;;21.58;74.77
5126;BME280;63008;53.112;8.896;2023-06-22T07:14:39;101893.50;;;21.70;75.24
5126;BME280;63008;53.112;8.896;2023-06-22T07:16:40;101891.59;;;21.77;75.22
5126;BME280;63008;53.112;8.896;2023-06-22T07:18:40;101892.03;;;21.79;74.56
5126;BME280;63008;53.112;8.896;2023-06-22T07:20:42;101891.81;;;21.95;73.92
5126;BME280;63008;53.112;8.896;2023-06-22T07:22:44;101898.22;;;21.95;72.83
5126;BME280;63008;53.112;8.896;2023-06-22T07:24:47;101900.34;;;22.05;73.76
5126;BME280;63008;53.112;8.896;2023-06-22T07:26:50;101902.09;;;22.20;73.84
5126;BME280;63008;53.112;8.896;2023-06-22T07:28:51;101900.44;;;22.16;71.30
5126;BME280;63008;53.112;8.896;2023-06-22T07:30:52;101896.56;;;22.27;70.85
5126;BME280;63008;53.112;8.896;2023-06-22T07:32:53;101894.59;;;22.28;69.87
5126;BME280;63008;53.112;8.896;2023-06-22T07:34:54;101898.63;;;22.33;70.22
5126;BME280;63008;53.112;8.896;2023-06-22T07:36:55;101897.09;;;22.39;71.53
5126;BME280;63008;53.112;8.896;2023-06-22T07:38:56;101883.19;;;22.46;69.91
5126;BME280;63008;53.112;8.896;2023-06-22T07:40:57;101886.50;;;22.59;70.69
5126;BME280;63008;53.112;8.896;2023-06-22T07:42:58;101887.31;;;22.63;68.01
5126;BME280;63008;53.112;8.896;2023-06-22T07:44:59;101886.53;;;22.66;69.44
5126;BME280;63008;53.112;8.896;2023-06-22T07:47:01;101881.81;;;22.73;67.21
5126;BME280;63008;53.112;8.896;2023-06-22T07:49:02;101886.28;;;22.85;67.87
5126;BME280;63008;53.112;8.896;2023-06-22T07:51:03;101898.78;;;22.98;67.83
5126;BME280;63008;53.112;8.896;2023-06-22T07:53:04;101885.19;;;23.00;66.30
5126;BME280;63008;53.112;8.896;2023-06-22T07:55:05;101880.91;;;23.13;67.05
5126;BME280;63008;53.112;8.896;2023-06-22T07:57:06;101882.97;;;23.23;67.08
5126;BME280;63008;53.112;8.896;2023-06-22T07:59:07;101878.16;;;23.20;66.21
5126;BME280;63008;53.112;8.896;2023-06-22T08:01:09;101879.41;;;23.29;65.29
5126;BME280;63008;53.112;8.896;2023-06-22T08:03:11;101866.00;;;22.98;64.78
5126;BME280;63008;53.112;8.896;2023-06-22T08:05:14;101870.09;;;23.11;66.52
5126;BME280;63008;53.112;8.896;2023-06-22T08:07:15;101867.00;;;23.27;65.56
5126;BME280;63008;53.112;8.896;2023-06-22T08:09:16;101863.03;;;23.42;65.36
5126;BME280;63008;53.112;8.896;2023-06-22T08:11:17;101863.84;;;23.42;65.22
5126;BME280;63008;53.112;8.896;2023-06-22T08:13:18;101861.91;;;23.57;65.29
5126;BME280;63008;53.112;8.896;2023-06-22T08:15:20;101866.31;;;23.58;64.28
5126;BME280;63008;53.112;8.896;2023-06-22T08:17:21;101866.75;;;23.63;63.71
5126;BME280;63008;53.112;8.896;2023-06-22T08:19:22;101862.38;;;23.69;63.67
5126;BME280;63008;53.112;8.896;2023-06-22T08:21:22;101850.75;;;23.64;63.25
5126;BME280;63008;53.112;8.896;2023-06-22T08:23:23;101850.84;;;23.88;63.76
5126;BME280;63008;53.112;8.896;2023-06-22T08:25:24;101854.91;;;24.08;63.83
5126;BME280;63008;53.112;8.896;2023-06-22T08:27:25;101860.53;;;24.22;63.38
5126;BME280;63008;53.112;8.896;2023-06-22T08:29:29;101854.91;;;24.22;61.45
5126;BME280;63008;53.112;8.896;2023-06-22T08:31:31;101855.69;;;24.23;62.20
5126;BME280;63008;53.112;8.896;2023-06-22T08:33:35;101856.50;;;24.37;61.68
5126;BME280;63008;53.112;8.896;2023-06-22T08:35:36;101850.13;;;24.57;59.44
5126;BME280;63008;53.112;8.896;2023-06-22T08:37:37;101853.75;;;24.65;59.63
5126;BME280;63008;53.112;8.896;2023-06-22T08:39:39;101859.75;;;24.70;60.40
5126;BME280;63008;53.112;8.896;2023-06-22T08:41:41;101855.34;;;24.66;60.27
5126;BME280;63008;53.112;8.896;2023-06-22T08:43:43;101851.72;;;24.86;60.58
5126;BME280;63008;53.112;8.896;2023-06-22T08:45:45;101849.31;;;24.92;58.80
5126;BME280;63008;53.112;8.896;2023-06-22T08:47:46;101847.28;;;24.96;58.84
5126;BME280;63008;53.112;8.896;2023-06-22T08:49:47;101846.84;;;25.25;59.37
5126;BME280;63008;53.112;8.896;2023-06-22T08:51:48;101843.19;;;25.32;57.18
5126;BME280;63008;53.112;8.896;2023-06-22T08:53:50;101840.31;;;25.49;56.85
5126;BME280;63008;53.112;8.896;2023-06-22T08:55:51;101841.44;;;25.62;56.03
5126;BME280;63008;53.112;8.896;2023-06-22T08:57:52;101838.56;;;25.80;55.93
5126;BME280;63008;53.112;8.896;2023-06-22T08:59:53;101834.94;;;25.76;55.01
5126;BME280;63008;53.112;8.896;2023-06-22T09:01:53;101841.38;;;25.80;52.81
5126;BME280;63008;53.112;8.896;2023-06-22T09:03:54;101834.03;;;26.00;53.18
5126;BME280;63008;53.112;8.896;2023-06-22T09:05:56;101830.78;;;26.05;54.26
5126;BME280;63008;53.112;8.896;2023-06-22T09:07:57;101829.25;;;25.90;54.28
5126;BME280;63008;53.112;8.896;2023-06-22T09:09:59;101826.00;;;25.98;52.88
5126;BME280;63008;53.112;8.896;2023-06-22T09:12:00;101834.81;;;26.04;53.10
5126;BME280;63008;53.112;8.896;2023-06-22T09:14:01;101833.41;;;26.33;53.09
5126;BME280;63008;53.112;8.896;2023-06-22T09:16:02;101829.22;;;26.47;54.17
5126;BME280;63008;53.112;8.896;2023-06-22T09:18:03;101832.41;;;26.56;51.55
5126;BME280;63008;53.112;8.896;2023-06-22T09:20:05;101824.03;;;26.46;53.05
5126;BME280;63008;53.112;8.896;2023-06-22T09:22:06;101831.94;;;26.61;51.76
5126;BME280;63008;53.112;8.896;2023-06-22T09:24:07;101823.19;;;26.52;51.75
5126;BME280;63008;53.112;8.896;2023-06-22T09:26:09;101823.31;;;26.31;53.77
5126;BME280;63008;53.112;8.896;2023-06-22T09:28:10;101815.41;;;26.67;54.90
5126;BME280;63008;53.112;8.896;2023-06-22T09:30:11;101813.56;;;26.90;52.48
5126;BME280;63008;53.112;8.896;2023-06-22T09:32:12;101812.94;;;26.72;52.02
5126;BME280;63008;53.112;8.896;2023-06-22T09:34:13;101810.91;;;26.73;53.24
5126;BME280;63008;53.112;8.896;2023-06-22T09:36:14;101805.50;;;27.26;50.86
5126;BME280;63008;53.112;8.896;2023-06-22T09:38:17;101803.84;;;27.32;50.96
5126;BME280;63008;53.112;8.896;2023-06-22T09:40:18;101807.63;;;27.48;50.74
5126;BME280;63008;53.112;8.896;2023-06-22T09:42:19;101809.94;;;27.57;49.05
5126;BME280;63008;53.112;8.896;2023-06-22T09:44:21;101802.34;;;27.84;50.51
5126;BME280;63008;53.112;8.896;2023-06-22T09:46:22;101802.53;;;27.96;49.28
5126;BME280;63008;53.112;8.896;2023-06-22T09:48:25;101793.13;;;27.50;49.54
5126;BME280;63008;53.112;8.896;2023-06-22T09:50:26;101797.75;;;27.93;51.97
5126;BME280;63008;53.112;8.896;2023-06-22T09:52:27;101798.66;;;28.13;49.49
5126;BME280;63008;53.112;8.896;2023-06-22T09:54:28;101798.75;;;28.06;48.96
5126;BME280;63008;53.112;8.896;2023-06-22T09:56:29;101796.06;;;28.22;48.15
5126;BME280;63008;53.112;8.896;2023-06-22T09:58:31;101790.97;;;28.14;48.14
5126;BME280;63008;53.112;8.896;2023-06-22T10:00:32;101786.38;;;28.69;48.05
5126;BME280;63008;53.112;8.896;2023-06-22T10:02:33;101787.38;;;29.01;47.82
5126;BME280;63008;53.112;8.896;2023-06-22T10:04:34;101778.97;;;29.37;46.11
5126;BME280;63008;53.112;8.896;2023-06-22T10:06:35;101775.84;;;29.12;47.31
5126;BME280;63008;53.112;8.896;2023-06-22T10:08:36;101775.94;;;28.89;46.23
5126;BME280;63008;53.112;8.896;2023-06-22T10:10:37;101773.13;;;28.66;46.86
5126;BME280;63008;53.112;8.896;2023-06-22T10:12:47;101767.97;;;27.89;48.72
5126;BME280;63008;53.112;8.896;2023-06-22T10:14:49;101762.09;;;28.03;50.74
5126;BME280;63008;53.112;8.896;2023-06-22T10:16:52;101761.50;;;28.60;48.55
5126;BME280;63008;53.112;8.896;2023-06-22T10:18:53;101753.34;;;28.85;47.90
5126;BME280;63008;53.112;8.896;2023-06-22T10:20:54;101755.69;;;29.10;46.41
5126;BME280;63008;53.112;8.896;2023-06-22T10:22:55;101749.97;;;29.13;45.89
5126;BME280;63008;53.112;8.896;2023-06-22T10:24:55;101748.50;;;29.25;47.55
5126;BME280;63008;53.112;8.896;2023-06-22T10:26:56;101741.84;;;28.96;48.78
5126;BME280;63008;53.112;8.896;2023-06-22T10:28:58;101745.75;;;29.21;49.48
5126;BME280;63008;53.112;8.896;2023-06-22T10:30:58;101740.69;;;29.68;46.66
5126;BME280;63008;53.112;8.896;2023-06-22T10:32:59;101740.63;;;28.97;47.16
5126;BME280;63008;53.112;8.896;2023-06-22T10:35:00;101742.97;;;28.79;46.42
5126;BME280;63008;53.112;8.896;2023-06-22T10:37:01;101742.13;;;29.01;47.40
5126;BME280;63008;53.112;8.896;2023-06-22T10:39:02;101734.84;;;29.39;45.39
5126;BME280;63008;53.112;8.896;2023-06-22T10:41:04;101744.84;;;28.85;47.07
5126;BME280;63008;53.112;8.896;2023-06-22T10:43:05;101729.47;;;29.45;46.45
5126;BME280;63008;53.112;8.896;2023-06-22T10:45:06;101738.00;;;29.61;46.19
5126;BME280;63008;53.112;8.896;2023-06-22T10:47:07;101739.06;;;29.67;45.09
5126;BME280;63008;53.112;8.896;2023-06-22T10:49:08;101734.66;;;29.66;45.24
5126;BME280;63008;53.112;8.896;2023-06-22T10:51:09;101730.84;;;29.56;45.15
5126;BME280;63008;53.112;8.896;2023-06-22T10:53:10;101731.44;;;29.48;45.49